首页
METAR-TAF:

METAR-TAF

机场 :

努美阿國際機場, 新喀里多尼亚

纬度: 22-01S, 经度: 166-13E, 海拔: 16米

当前天气观测

该预报发布于21分钟前的02:00 UTC
风速11节,风向南转西南,在西转西南之间变化
温度 32°C
湿度 38%
气压 1011 hPa
能见度10公里或以上
少量云层高于5800英尺

METAR: NWWW 210200Z AUTO 20011KT 170V240 9999 FEW058 32/16 Q1011 NOSIG

时间: 13:21 (02:21 UTC)

预报

该预报发布于3小时和21分钟前的23:00 UTC
预报有效从21日的 00点(UTC)到 21日的 24点(UTC)
风速8节,风向西南
能见度10公里或以上
散云层高于6000英尺

TAF: NWWW 202300Z 2100/2124 22008KT 9999 SCT060

超过4000个机场的气象观测和天气预报(METAR&TAF报告)。

可查询的气象台以黄色和红色小点在地图上表示。

将鼠标移到小点上方,可查看气象台名称。

然后点击查看天气观测和预报。

如需切换地图:点击带黑十字的绿色按钮放大地图;点击带横线的绿色按钮缩小地图;或者点击绿色箭头查看邻近地区的地图。


METAR-TAF: